Ellenburg, New York
Current Conditions -  °F | °C
As of 3:53 PM on Thursday 18 Dec 2014 (Local Time) from KPBG Reporting Station
Overcast Overcast  
Wind Chill: 26°   Ceiling: 2600
Heat Index: 32°   Visibility: 10mi
Dew Point: 25°   Wind: 6mph
Humidity: 75%   Direction: 290°WNW
Pressure: 29.89"   Gusts: NA
Location:  44.89°N, 73.84°W
Report Text: KPBG 182053Z AUTO 29005KT 10SM OVC026 00/M04 A2989 RMK AO2 SLP124 T00001039 52012
Loading
Personal Weather Stations






























Interactive Weather Map New forecast layout! Learn more

10-Day Weather Forecast

Advertisements
Track Severe Weather on mobile